sensor_id;sensor_type;location;lat;lon;timestamp;P1;durP1;ratioP1;P2;durP2;ratioP2
17864;SDS011;9058;52.018;4.202;2023-07-13T00:01:46;8.07;;;1.98;;
17864;SDS011;9058;52.018;4.202;2023-07-13T00:04:15;9.60;;;2.00;;
17864;SDS011;9058;52.018;4.202;2023-07-13T00:06:42;7.75;;;1.80;;
17864;SDS011;9058;52.018;4.202;2023-07-13T00:09:10;9.07;;;2.10;;
17864;SDS011;9058;52.018;4.202;2023-07-13T00:11:39;12.05;;;2.60;;
17864;SDS011;9058;52.018;4.202;2023-07-13T00:14:05;8.20;;;2.03;;
17864;SDS011;9058;52.018;4.202;2023-07-13T00:16:33;8.38;;;1.60;;
17864;SDS011;9058;52.018;4.202;2023-07-13T00:19:00;5.13;;;1.52;;
17864;SDS011;9058;52.018;4.202;2023-07-13T00:21:27;6.38;;;1.60;;
17864;SDS011;9058;52.018;4.202;2023-07-13T00:23:53;5.82;;;1.50;;
17864;SDS011;9058;52.018;4.202;2023-07-13T00:26:20;5.57;;;1.60;;
17864;SDS011;9058;52.018;4.202;2023-07-13T00:28:48;11.63;;;2.17;;
17864;SDS011;9058;52.018;4.202;2023-07-13T00:31:15;5.47;;;1.67;;
17864;SDS011;9058;52.018;4.202;2023-07-13T00:33:42;4.47;;;1.80;;
17864;SDS011;9058;52.018;4.202;2023-07-13T00:36:09;6.70;;;1.55;;
17864;SDS011;9058;52.018;4.202;2023-07-13T00:38:36;8.02;;;1.92;;
17864;SDS011;9058;52.018;4.202;2023-07-13T00:41:03;7.70;;;1.40;;
17864;SDS011;9058;52.018;4.202;2023-07-13T00:43:30;3.97;;;1.80;;
17864;SDS011;9058;52.018;4.202;2023-07-13T00:46:13;8.30;;;1.60;;
17864;SDS011;9058;52.018;4.202;2023-07-13T00:48:40;6.20;;;1.38;;
17864;SDS011;9058;52.018;4.202;2023-07-13T00:51:08;5.45;;;1.38;;
17864;SDS011;9058;52.018;4.202;2023-07-13T00:53:36;5.32;;;1.10;;
17864;SDS011;9058;52.018;4.202;2023-07-13T00:56:04;3.08;;;1.27;;
17864;SDS011;9058;52.018;4.202;2023-07-13T00:58:32;2.88;;;1.08;;
17864;SDS011;9058;52.018;4.202;2023-07-13T01:01:00;4.72;;;1.20;;
17864;SDS011;9058;52.018;4.202;2023-07-13T01:03:28;3.78;;;1.00;;
17864;SDS011;9058;52.018;4.202;2023-07-13T01:05:55;3.53;;;1.08;;
17864;SDS011;9058;52.018;4.202;2023-07-13T01:08:22;2.75;;;1.20;;
17864;SDS011;9058;52.018;4.202;2023-07-13T01:10:52;3.08;;;1.30;;
17864;SDS011;9058;52.018;4.202;2023-07-13T01:13:19;8.82;;;1.02;;
17864;SDS011;9058;52.018;4.202;2023-07-13T01:15:46;6.15;;;1.50;;
17864;SDS011;9058;52.018;4.202;2023-07-13T01:18:14;6.07;;;1.50;;
17864;SDS011;9058;52.018;4.202;2023-07-13T01:20:47;4.82;;;1.17;;
17864;SDS011;9058;52.018;4.202;2023-07-13T01:23:14;4.97;;;1.27;;
17864;SDS011;9058;52.018;4.202;2023-07-13T01:25:40;3.45;;;1.40;;
17864;SDS011;9058;52.018;4.202;2023-07-13T01:28:07;4.32;;;1.20;;
17864;SDS011;9058;52.018;4.202;2023-07-13T01:30:34;2.38;;;1.13;;
17864;SDS011;9058;52.018;4.202;2023-07-13T01:33:01;3.85;;;1.10;;
17864;SDS011;9058;52.018;4.202;2023-07-13T01:35:29;2.97;;;1.13;;
17864;SDS011;9058;52.018;4.202;2023-07-13T01:37:57;4.72;;;1.40;;
17864;SDS011;9058;52.018;4.202;2023-07-13T01:40:26;5.07;;;1.73;;
17864;SDS011;9058;52.018;4.202;2023-07-13T01:42:53;5.53;;;1.25;;
17864;SDS011;9058;52.018;4.202;2023-07-13T01:45:19;4.85;;;1.60;;
17864;SDS011;9058;52.018;4.202;2023-07-13T01:47:46;3.60;;;1.33;;
17864;SDS011;9058;52.018;4.202;2023-07-13T01:50:13;6.78;;;1.60;;
17864;SDS011;9058;52.018;4.202;2023-07-13T01:52:40;6.40;;;1.75;;
17864;SDS011;9058;52.018;4.202;2023-07-13T01:55:08;5.28;;;1.48;;
17864;SDS011;9058;52.018;4.202;2023-07-13T01:57:35;5.70;;;2.63;;
17864;SDS011;9058;52.018;4.202;2023-07-13T02:00:02;3.55;;;1.80;;
17864;SDS011;9058;52.018;4.202;2023-07-13T02:02:29;7.05;;;1.95;;
17864;SDS011;9058;52.018;4.202;2023-07-13T02:04:56;6.28;;;1.88;;
17864;SDS011;9058;52.018;4.202;2023-07-13T02:07:23;12.32;;;2.22;;
17864;SDS011;9058;52.018;4.202;2023-07-13T02:09:49;7.15;;;2.30;;
17864;SDS011;9058;52.018;4.202;2023-07-13T02:12:18;7.70;;;1.83;;
17864;SDS011;9058;52.018;4.202;2023-07-13T02:14:45;9.27;;;2.28;;
17864;SDS011;9058;52.018;4.202;2023-07-13T02:17:13;10.50;;;2.40;;
17864;SDS011;9058;52.018;4.202;2023-07-13T02:19:40;12.38;;;2.50;;
17864;SDS011;9058;52.018;4.202;2023-07-13T02:22:07;10.27;;;2.42;;
17864;SDS011;9058;52.018;4.202;2023-07-13T02:24:33;10.63;;;2.60;;
17864;SDS011;9058;52.018;4.202;2023-07-13T02:27:00;10.93;;;2.83;;
17864;SDS011;9058;52.018;4.202;2023-07-13T02:29:31;11.50;;;2.53;;
17864;SDS011;9058;52.018;4.202;2023-07-13T02:31:58;12.25;;;2.63;;
17864;SDS011;9058;52.018;4.202;2023-07-13T02:34:25;8.90;;;2.22;;
17864;SDS011;9058;52.018;4.202;2023-07-13T02:36:51;9.88;;;2.33;;
17864;SDS011;9058;52.018;4.202;2023-07-13T02:39:18;12.80;;;2.70;;
17864;SDS011;9058;52.018;4.202;2023-07-13T02:41:45;13.77;;;2.67;;
17864;SDS011;9058;52.018;4.202;2023-07-13T02:44:12;9.48;;;2.30;;
17864;SDS011;9058;52.018;4.202;2023-07-13T02:46:40;11.27;;;3.08;;
17864;SDS011;9058;52.018;4.202;2023-07-13T02:49:07;9.82;;;2.63;;
17864;SDS011;9058;52.018;4.202;2023-07-13T02:51:34;9.02;;;3.00;;
17864;SDS011;9058;52.018;4.202;2023-07-13T02:54:00;8.27;;;2.45;;
17864;SDS011;9058;52.018;4.202;2023-07-13T02:56:28;13.68;;;4.20;;
17864;SDS011;9058;52.018;4.202;2023-07-13T02:58:55;10.10;;;2.80;;
17864;SDS011;9058;52.018;4.202;2023-07-13T03:01:22;11.48;;;2.60;;
17864;SDS011;9058;52.018;4.202;2023-07-13T03:03:51;13.30;;;2.75;;
17864;SDS011;9058;52.018;4.202;2023-07-13T03:06:18;9.18;;;2.95;;
17864;SDS011;9058;52.018;4.202;2023-07-13T03:08:47;12.02;;;3.13;;
17864;SDS011;9058;52.018;4.202;2023-07-13T03:11:15;8.48;;;2.58;;
17864;SDS011;9058;52.018;4.202;2023-07-13T03:13:43;12.90;;;2.65;;
17864;SDS011;9058;52.018;4.202;2023-07-13T03:16:10;9.30;;;2.55;;
17864;SDS011;9058;52.018;4.202;2023-07-13T03:18:38;12.70;;;3.55;;
17864;SDS011;9058;52.018;4.202;2023-07-13T03:21:06;11.15;;;2.90;;
17864;SDS011;9058;52.018;4.202;2023-07-13T03:23:32;12.10;;;3.30;;
17864;SDS011;9058;52.018;4.202;2023-07-13T03:26:01;11.27;;;3.00;;
17864;SDS011;9058;52.018;4.202;2023-07-13T03:28:27;12.18;;;2.90;;
17864;SDS011;9058;52.018;4.202;2023-07-13T03:30:59;6.22;;;2.53;;
17864;SDS011;9058;52.018;4.202;2023-07-13T03:33:25;10.10;;;3.63;;
17864;SDS011;9058;52.018;4.202;2023-07-13T03:35:52;13.82;;;2.60;;
17864;SDS011;9058;52.018;4.202;2023-07-13T03:38:20;10.52;;;2.45;;
17864;SDS011;9058;52.018;4.202;2023-07-13T03:40:46;9.43;;;2.78;;
17864;SDS011;9058;52.018;4.202;2023-07-13T03:43:13;8.75;;;2.70;;
17864;SDS011;9058;52.018;4.202;2023-07-13T03:45:39;7.00;;;3.03;;
17864;SDS011;9058;52.018;4.202;2023-07-13T03:48:06;10.02;;;2.30;;
17864;SDS011;9058;52.018;4.202;2023-07-13T03:50:33;7.97;;;2.22;;
17864;SDS011;9058;52.018;4.202;2023-07-13T03:53:00;8.15;;;2.00;;
17864;SDS011;9058;52.018;4.202;2023-07-13T03:55:27;11.73;;;2.70;;
17864;SDS011;9058;52.018;4.202;2023-07-13T03:58:01;8.27;;;2.70;;
17864;SDS011;9058;52.018;4.202;2023-07-13T04:00:27;9.60;;;2.45;;
17864;SDS011;9058;52.018;4.202;2023-07-13T04:02:53;13.68;;;3.08;;
17864;SDS011;9058;52.018;4.202;2023-07-13T04:05:20;10.25;;;2.25;;
17864;SDS011;9058;52.018;4.202;2023-07-13T04:07:47;9.07;;;2.53;;
17864;SDS011;9058;52.018;4.202;2023-07-13T04:10:13;6.68;;;2.22;;
17864;SDS011;9058;52.018;4.202;2023-07-13T04:12:41;5.63;;;1.90;;
17864;SDS011;9058;52.018;4.202;2023-07-13T04:15:08;7.32;;;2.08;;
17864;SDS011;9058;52.018;4.202;2023-07-13T04:17:35;9.20;;;2.40;;
17864;SDS011;9058;52.018;4.202;2023-07-13T04:20:01;6.05;;;2.50;;
17864;SDS011;9058;52.018;4.202;2023-07-13T04:22:29;6.80;;;2.28;;
17864;SDS011;9058;52.018;4.202;2023-07-13T04:24:55;8.63;;;2.22;;
17864;SDS011;9058;52.018;4.202;2023-07-13T04:27:22;10.95;;;2.08;;
17864;SDS011;9058;52.018;4.202;2023-07-13T04:29:51;8.00;;;2.00;;
17864;SDS011;9058;52.018;4.202;2023-07-13T04:32:17;8.07;;;2.42;;
17864;SDS011;9058;52.018;4.202;2023-07-13T04:34:44;7.45;;;2.25;;
17864;SDS011;9058;52.018;4.202;2023-07-13T04:37:10;7.25;;;2.63;;
17864;SDS011;9058;52.018;4.202;2023-07-13T04:39:37;7.25;;;2.30;;
17864;SDS011;9058;52.018;4.202;2023-07-13T04:42:04;9.88;;;2.42;;
17864;SDS011;9058;52.018;4.202;2023-07-13T04:44:31;8.40;;;2.47;;
17864;SDS011;9058;52.018;4.202;2023-07-13T04:46:59;9.63;;;2.38;;
17864;SDS011;9058;52.018;4.202;2023-07-13T04:49:25;8.82;;;2.42;;
17864;SDS011;9058;52.018;4.202;2023-07-13T04:51:52;7.18;;;2.30;;
17864;SDS011;9058;52.018;4.202;2023-07-13T04:54:20;10.63;;;2.75;;
17864;SDS011;9058;52.018;4.202;2023-07-13T04:56:47;8.38;;;2.03;;
17864;SDS011;9058;52.018;4.202;2023-07-13T04:59:13;5.18;;;1.90;;
17864;SDS011;9058;52.018;4.202;2023-07-13T05:01:41;9.48;;;2.20;;
17864;SDS011;9058;52.018;4.202;2023-07-13T05:04:10;10.07;;;2.33;;
17864;SDS011;9058;52.018;4.202;2023-07-13T05:06:36;8.48;;;2.30;;
17864;SDS011;9058;52.018;4.202;2023-07-13T05:09:02;7.45;;;2.70;;
17864;SDS011;9058;52.018;4.202;2023-07-13T05:11:29;7.32;;;2.13;;
17864;SDS011;9058;52.018;4.202;2023-07-13T05:13:55;9.65;;;2.58;;
17864;SDS011;9058;52.018;4.202;2023-07-13T05:16:22;6.97;;;2.20;;
17864;SDS011;9058;52.018;4.202;2023-07-13T05:18:48;5.68;;;2.17;;
17864;SDS011;9058;52.018;4.202;2023-07-13T05:21:16;7.07;;;2.20;;
17864;SDS011;9058;52.018;4.202;2023-07-13T05:23:43;7.40;;;2.33;;
17864;SDS011;9058;52.018;4.202;2023-07-13T05:26:10;5.95;;;2.33;;
17864;SDS011;9058;52.018;4.202;2023-07-13T05:28:36;8.38;;;2.45;;
17864;SDS011;9058;52.018;4.202;2023-07-13T05:31:03;8.23;;;1.95;;
17864;SDS011;9058;52.018;4.202;2023-07-13T05:33:30;4.68;;;2.20;;
17864;SDS011;9058;52.018;4.202;2023-07-13T05:35:56;4.85;;;2.15;;
17864;SDS011;9058;52.018;4.202;2023-07-13T05:38:25;8.80;;;2.20;;
17864;SDS011;9058;52.018;4.202;2023-07-13T05:40:52;3.95;;;1.85;;
17864;SDS011;9058;52.018;4.202;2023-07-13T05:43:20;4.97;;;1.83;;
17864;SDS011;9058;52.018;4.202;2023-07-13T05:45:48;8.77;;;1.92;;
17864;SDS011;9058;52.018;4.202;2023-07-13T05:48:15;3.97;;;1.90;;
17864;SDS011;9058;52.018;4.202;2023-07-13T05:50:41;10.43;;;2.20;;
17864;SDS011;9058;52.018;4.202;2023-07-13T05:53:09;4.93;;;2.35;;
17864;SDS011;9058;52.018;4.202;2023-07-13T05:55:37;6.35;;;2.28;;
17864;SDS011;9058;52.018;4.202;2023-07-13T05:58:06;7.30;;;2.20;;
17864;SDS011;9058;52.018;4.202;2023-07-13T06:00:33;7.85;;;2.05;;
17864;SDS011;9058;52.018;4.202;2023-07-13T06:02:59;9.30;;;2.45;;
17864;SDS011;9058;52.018;4.202;2023-07-13T06:05:26;6.97;;;2.53;;
17864;SDS011;9058;52.018;4.202;2023-07-13T06:07:54;8.75;;;2.33;;
17864;SDS011;9058;52.018;4.202;2023-07-13T06:10:20;4.57;;;1.90;;
17864;SDS011;9058;52.018;4.202;2023-07-13T06:12:48;8.02;;;2.45;;
17864;SDS011;9058;52.018;4.202;2023-07-13T06:15:14;7.03;;;2.20;;
17864;SDS011;9058;52.018;4.202;2023-07-13T06:17:41;7.43;;;1.80;;
17864;SDS011;9058;52.018;4.202;2023-07-13T06:20:08;8.93;;;2.50;;
17864;SDS011;9058;52.018;4.202;2023-07-13T06:22:34;4.93;;;2.33;;
17864;SDS011;9058;52.018;4.202;2023-07-13T06:25:02;7.50;;;2.30;;
17864;SDS011;9058;52.018;4.202;2023-07-13T06:27:29;6.25;;;2.22;;
17864;SDS011;9058;52.018;4.202;2023-07-13T06:29:57;6.53;;;2.13;;
17864;SDS011;9058;52.018;4.202;2023-07-13T06:32:23;6.57;;;2.90;;
17864;SDS011;9058;52.018;4.202;2023-07-13T06:34:50;5.50;;;1.83;;
17864;SDS011;9058;52.018;4.202;2023-07-13T06:37:17;4.85;;;2.25;;
17864;SDS011;9058;52.018;4.202;2023-07-13T06:39:44;5.93;;;2.35;;
17864;SDS011;9058;52.018;4.202;2023-07-13T06:42:10;5.75;;;1.88;;
17864;SDS011;9058;52.018;4.202;2023-07-13T06:44:37;8.05;;;2.45;;
17864;SDS011;9058;52.018;4.202;2023-07-13T06:47:05;6.40;;;1.98;;
17864;SDS011;9058;52.018;4.202;2023-07-13T06:49:32;7.82;;;2.42;;
17864;SDS011;9058;52.018;4.202;2023-07-13T06:51:59;9.40;;;2.50;;
17864;SDS011;9058;52.018;4.202;2023-07-13T06:54:25;7.90;;;2.58;;
17864;SDS011;9058;52.018;4.202;2023-07-13T06:56:52;5.90;;;2.40;;
17864;SDS011;9058;52.018;4.202;2023-07-13T06:59:19;7.72;;;2.03;;
17864;SDS011;9058;52.018;4.202;2023-07-13T07:01:45;7.25;;;2.30;;
17864;SDS011;9058;52.018;4.202;2023-07-13T07:04:14;7.85;;;2.38;;
17864;SDS011;9058;52.018;4.202;2023-07-13T07:06:40;6.43;;;2.00;;
17864;SDS011;9058;52.018;4.202;2023-07-13T07:09:08;5.45;;;2.00;;
17864;SDS011;9058;52.018;4.202;2023-07-13T07:11:36;4.50;;;2.00;;
17864;SDS011;9058;52.018;4.202;2023-07-13T07:14:02;4.93;;;2.17;;
17864;SDS011;9058;52.018;4.202;2023-07-13T07:16:29;7.47;;;2.28;;
17864;SDS011;9058;52.018;4.202;2023-07-13T07:18:56;6.78;;;2.88;;
17864;SDS011;9058;52.018;4.202;2023-07-13T07:21:25;9.38;;;2.58;;
17864;SDS011;9058;52.018;4.202;2023-07-13T07:23:52;4.72;;;2.00;;
17864;SDS011;9058;52.018;4.202;2023-07-13T07:26:19;5.85;;;2.33;;
17864;SDS011;9058;52.018;4.202;2023-07-13T07:28:46;7.75;;;2.58;;
17864;SDS011;9058;52.018;4.202;2023-07-13T07:31:12;4.40;;;2.08;;
17864;SDS011;9058;52.018;4.202;2023-07-13T07:33:39;9.13;;;2.42;;
17864;SDS011;9058;52.018;4.202;2023-07-13T07:36:05;9.02;;;2.45;;
17864;SDS011;9058;52.018;4.202;2023-07-13T07:38:34;5.80;;;2.28;;
17864;SDS011;9058;52.018;4.202;2023-07-13T07:41:02;7.43;;;2.53;;
17864;SDS011;9058;52.018;4.202;2023-07-13T07:43:29;6.47;;;2.30;;
17864;SDS011;9058;52.018;4.202;2023-07-13T07:45:56;5.43;;;2.75;;
17864;SDS011;9058;52.018;4.202;2023-07-13T07:48:23;5.85;;;1.90;;
17864;SDS011;9058;52.018;4.202;2023-07-13T07:50:49;7.97;;;2.25;;
17864;SDS011;9058;52.018;4.202;2023-07-13T07:53:17;7.63;;;2.53;;
17864;SDS011;9058;52.018;4.202;2023-07-13T07:55:45;5.65;;;1.90;;
17864;SDS011;9058;52.018;4.202;2023-07-13T07:58:12;7.38;;;2.45;;
17864;SDS011;9058;52.018;4.202;2023-07-13T08:00:39;11.35;;;3.28;;
17864;SDS011;9058;52.018;4.202;2023-07-13T08:03:05;6.53;;;2.63;;
17864;SDS011;9058;52.018;4.202;2023-07-13T08:05:34;7.47;;;2.13;;
17864;SDS011;9058;52.018;4.202;2023-07-13T08:08:01;6.63;;;2.15;;
17864;SDS011;9058;52.018;4.202;2023-07-13T08:10:28;8.20;;;2.33;;
17864;SDS011;9058;52.018;4.202;2023-07-13T08:12:56;6.07;;;2.05;;
17864;SDS011;9058;52.018;4.202;2023-07-13T08:15:22;7.45;;;3.08;;
17864;SDS011;9058;52.018;4.202;2023-07-13T08:17:50;8.70;;;2.17;;
17864;SDS011;9058;52.018;4.202;2023-07-13T08:20:16;4.50;;;2.28;;
17864;SDS011;9058;52.018;4.202;2023-07-13T08:22:43;7.88;;;3.53;;
17864;SDS011;9058;52.018;4.202;2023-07-13T08:25:10;9.05;;;2.83;;
17864;SDS011;9058;52.018;4.202;2023-07-13T08:27:36;9.15;;;2.35;;
17864;SDS011;9058;52.018;4.202;2023-07-13T08:30:05;5.00;;;2.20;;
17864;SDS011;9058;52.018;4.202;2023-07-13T08:32:33;7.60;;;2.88;;
17864;SDS011;9058;52.018;4.202;2023-07-13T08:35:00;5.18;;;2.20;;
17864;SDS011;9058;52.018;4.202;2023-07-13T08:37:26;4.00;;;2.35;;
17864;SDS011;9058;52.018;4.202;2023-07-13T08:39:53;6.15;;;2.25;;
17864;SDS011;9058;52.018;4.202;2023-07-13T08:42:23;7.95;;;2.65;;
17864;SDS011;9058;52.018;4.202;2023-07-13T08:44:54;9.68;;;3.28;;
17864;SDS011;9058;52.018;4.202;2023-07-13T08:47:25;5.25;;;2.63;;
17864;SDS011;9058;52.018;4.202;2023-07-13T08:49:53;10.20;;;2.40;;
17864;SDS011;9058;52.018;4.202;2023-07-13T08:52:28;5.47;;;2.22;;
17864;SDS011;9058;52.018;4.202;2023-07-13T08:54:56;7.38;;;2.40;;
17864;SDS011;9058;52.018;4.202;2023-07-13T08:57:24;9.52;;;2.15;;
17864;SDS011;9058;52.018;4.202;2023-07-13T08:59:55;8.02;;;2.10;;
17864;SDS011;9058;52.018;4.202;2023-07-13T09:02:26;6.13;;;2.40;;
17864;SDS011;9058;52.018;4.202;2023-07-13T09:04:55;7.32;;;2.50;;
17864;SDS011;9058;52.018;4.202;2023-07-13T09:07:26;8.10;;;2.67;;
17864;SDS011;9058;52.018;4.202;2023-07-13T09:10:05;9.88;;;2.63;;
17864;SDS011;9058;52.018;4.202;2023-07-13T09:12:35;8.43;;;2.53;;
17864;SDS011;9058;52.018;4.202;2023-07-13T09:15:07;5.55;;;2.85;;
17864;SDS011;9058;52.018;4.202;2023-07-13T09:17:44;7.97;;;2.80;;
17864;SDS011;9058;52.018;4.202;2023-07-13T09:20:16;6.55;;;2.45;;
17864;SDS011;9058;52.018;4.202;2023-07-13T09:22:43;7.15;;;2.42;;
17864;SDS011;9058;52.018;4.202;2023-07-13T09:25:13;9.82;;;3.15;;
17864;SDS011;9058;52.018;4.202;2023-07-13T09:27:46;8.02;;;2.75;;
17864;SDS011;9058;52.018;4.202;2023-07-13T09:30:21;6.30;;;2.67;;
17864;SDS011;9058;52.018;4.202;2023-07-13T09:32:52;5.47;;;2.63;;
17864;SDS011;9058;52.018;4.202;2023-07-13T09:35:19;8.23;;;2.60;;
17864;SDS011;9058;52.018;4.202;2023-07-13T09:37:46;9.20;;;3.03;;
17864;SDS011;9058;52.018;4.202;2023-07-13T09:40:23;8.07;;;2.65;;
17864;SDS011;9058;52.018;4.202;2023-07-13T09:42:51;6.72;;;2.50;;
17864;SDS011;9058;52.018;4.202;2023-07-13T09:45:26;4.90;;;2.50;;
17864;SDS011;9058;52.018;4.202;2023-07-13T09:48:00;6.53;;;2.17;;
17864;SDS011;9058;52.018;4.202;2023-07-13T09:50:29;8.20;;;3.25;;
17864;SDS011;9058;52.018;4.202;2023-07-13T09:52:56;5.25;;;2.88;;
17864;SDS011;9058;52.018;4.202;2023-07-13T09:55:25;6.47;;;2.70;;
17864;SDS011;9058;52.018;4.202;2023-07-13T09:57:52;6.72;;;2.80;;
17864;SDS011;9058;52.018;4.202;2023-07-13T10:00:21;5.80;;;2.65;;
17864;SDS011;9058;52.018;4.202;2023-07-13T10:02:52;7.65;;;2.00;;
17864;SDS011;9058;52.018;4.202;2023-07-13T10:05:25;5.25;;;3.20;;
17864;SDS011;9058;52.018;4.202;2023-07-13T10:07:53;6.20;;;2.25;;
17864;SDS011;9058;52.018;4.202;2023-07-13T10:10:22;5.28;;;2.13;;
17864;SDS011;9058;52.018;4.202;2023-07-13T10:12:49;8.27;;;2.50;;
17864;SDS011;9058;52.018;4.202;2023-07-13T10:15:17;6.05;;;2.45;;
17864;SDS011;9058;52.018;4.202;2023-07-13T10:17:44;5.13;;;2.53;;
17864;SDS011;9058;52.018;4.202;2023-07-13T10:20:11;7.88;;;3.25;;
17864;SDS011;9058;52.018;4.202;2023-07-13T10:22:42;5.15;;;2.20;;
17864;SDS011;9058;52.018;4.202;2023-07-13T10:25:13;4.28;;;2.72;;
17864;SDS011;9058;52.018;4.202;2023-07-13T10:27:41;7.88;;;2.88;;
17864;SDS011;9058;52.018;4.202;2023-07-13T10:30:11;5.28;;;2.63;;
17864;SDS011;9058;52.018;4.202;2023-07-13T10:32:38;5.15;;;2.08;;
17864;SDS011;9058;52.018;4.202;2023-07-13T10:35:07;6.72;;;2.40;;
17864;SDS011;9058;52.018;4.202;2023-07-13T10:37:36;5.00;;;2.10;;
17864;SDS011;9058;52.018;4.202;2023-07-13T10:40:11;4.88;;;2.25;;
17864;SDS011;9058;52.018;4.202;2023-07-13T10:42:39;5.35;;;2.67;;
17864;SDS011;9058;52.018;4.202;2023-07-13T10:45:12;6.80;;;2.88;;
17864;SDS011;9058;52.018;4.202;2023-07-13T10:47:39;6.22;;;2.08;;
17864;SDS011;9058;52.018;4.202;2023-07-13T10:50:08;5.13;;;2.50;;
17864;SDS011;9058;52.018;4.202;2023-07-13T10:52:40;10.75;;;2.50;;
17864;SDS011;9058;52.018;4.202;2023-07-13T10:57:51;6.03;;;2.20;;
17864;SDS011;9058;52.018;4.202;2023-07-13T11:00:18;4.93;;;2.63;;
17864;SDS011;9058;52.018;4.202;2023-07-13T11:02:48;4.75;;;2.20;;
17864;SDS011;9058;52.018;4.202;2023-07-13T11:05:26;7.95;;;2.30;;
17864;SDS011;9058;52.018;4.202;2023-07-13T11:07:55;5.50;;;2.20;;
17864;SDS011;9058;52.018;4.202;2023-07-13T11:13:04;5.55;;;2.33;;
17864;SDS011;9058;52.018;4.202;2023-07-13T11:15:39;4.80;;;2.45;;
17864;SDS011;9058;52.018;4.202;2023-07-13T11:18:19;4.80;;;2.13;;
17864;SDS011;9058;52.018;4.202;2023-07-13T11:20:46;7.13;;;2.38;;
17864;SDS011;9058;52.018;4.202;2023-07-13T11:23:17;6.03;;;2.42;;
17864;SDS011;9058;52.018;4.202;2023-07-13T11:25:45;4.60;;;2.20;;
17864;SDS011;9058;52.018;4.202;2023-07-13T11:28:17;6.97;;;2.65;;
17864;SDS011;9058;52.018;4.202;2023-07-13T11:30:46;6.15;;;2.72;;
17864;SDS011;9058;52.018;4.202;2023-07-13T11:33:14;4.03;;;2.45;;
17864;SDS011;9058;52.018;4.202;2023-07-13T11:35:45;5.45;;;2.65;;
17864;SDS011;9058;52.018;4.202;2023-07-13T11:38:14;3.72;;;2.00;;
17864;SDS011;9058;52.018;4.202;2023-07-13T11:40:42;4.60;;;2.47;;
17864;SDS011;9058;52.018;4.202;2023-07-13T11:43:11;6.35;;;2.47;;
17864;SDS011;9058;52.018;4.202;2023-07-13T11:45:40;3.97;;;2.15;;
17864;SDS011;9058;52.018;4.202;2023-07-13T11:48:16;4.88;;;2.38;;
17864;SDS011;9058;52.018;4.202;2023-07-13T11:50:48;5.30;;;2.28;;
17864;SDS011;9058;52.018;4.202;2023-07-13T11:53:15;4.10;;;2.00;;
17864;SDS011;9058;52.018;4.202;2023-07-13T11:55:42;4.55;;;2.22;;
17864;SDS011;9058;52.018;4.202;2023-07-13T11:58:09;3.95;;;2.20;;
17864;SDS011;9058;52.018;4.202;2023-07-13T12:00:36;3.40;;;2.03;;
17864;SDS011;9058;52.018;4.202;2023-07-13T12:03:07;6.47;;;2.30;;
17864;SDS011;9058;52.018;4.202;2023-07-13T12:05:34;4.03;;;2.50;;
17864;SDS011;9058;52.018;4.202;2023-07-13T12:08:08;5.40;;;2.15;;
17864;SDS011;9058;52.018;4.202;2023-07-13T12:10:36;6.35;;;1.88;;
17864;SDS011;9058;52.018;4.202;2023-07-13T12:13:03;5.50;;;2.08;;
17864;SDS011;9058;52.018;4.202;2023-07-13T12:15:32;7.00;;;2.35;;
17864;SDS011;9058;52.018;4.202;2023-07-13T12:18:02;3.47;;;1.83;;
17864;SDS011;9058;52.018;4.202;2023-07-13T12:20:34;4.50;;;2.17;;
17864;SDS011;9058;52.018;4.202;2023-07-13T12:23:01;6.15;;;2.78;;
17864;SDS011;9058;52.018;4.202;2023-07-13T12:25:29;4.50;;;2.53;;
17864;SDS011;9058;52.018;4.202;2023-07-13T12:27:56;3.50;;;1.92;;
17864;SDS011;9058;52.018;4.202;2023-07-13T12:30:25;6.55;;;2.38;;
17864;SDS011;9058;52.018;4.202;2023-07-13T12:32:56;4.22;;;1.92;;
17864;SDS011;9058;52.018;4.202;2023-07-13T12:35:23;4.68;;;2.30;;
17864;SDS011;9058;52.018;4.202;2023-07-13T12:37:51;4.40;;;2.00;;
17864;SDS011;9058;52.018;4.202;2023-07-13T12:40:19;5.38;;;2.03;;
17864;SDS011;9058;52.018;4.202;2023-07-13T12:42:47;3.55;;;1.67;;
17864;SDS011;9058;52.018;4.202;2023-07-13T12:45:16;5.53;;;2.33;;
17864;SDS011;9058;52.018;4.202;2023-07-13T12:47:47;3.30;;;1.70;;
17864;SDS011;9058;52.018;4.202;2023-07-13T12:50:14;6.18;;;2.05;;
17864;SDS011;9058;52.018;4.202;2023-07-13T12:52:42;4.32;;;2.00;;
17864;SDS011;9058;52.018;4.202;2023-07-13T12:55:12;4.82;;;2.05;;
17864;SDS011;9058;52.018;4.202;2023-07-13T12:57:41;4.55;;;1.77;;
17864;SDS011;9058;52.018;4.202;2023-07-13T13:00:18;5.88;;;2.72;;
17864;SDS011;9058;52.018;4.202;2023-07-13T13:02:45;6.75;;;2.38;;
17864;SDS011;9058;52.018;4.202;2023-07-13T13:05:15;5.70;;;2.08;;
17864;SDS011;9058;52.018;4.202;2023-07-13T13:07:42;6.78;;;1.95;;
17864;SDS011;9058;52.018;4.202;2023-07-13T13:10:13;5.57;;;1.88;;
17864;SDS011;9058;52.018;4.202;2023-07-13T13:12:39;3.67;;;2.10;;
17864;SDS011;9058;52.018;4.202;2023-07-13T13:15:07;3.80;;;1.70;;
17864;SDS011;9058;52.018;4.202;2023-07-13T13:17:34;4.75;;;1.88;;
17864;SDS011;9058;52.018;4.202;2023-07-13T13:20:01;6.35;;;1.80;;
17864;SDS011;9058;52.018;4.202;2023-07-13T13:22:28;6.07;;;2.13;;
17864;SDS011;9058;52.018;4.202;2023-07-13T13:24:54;4.63;;;1.65;;
17864;SDS011;9058;52.018;4.202;2023-07-13T13:27:23;5.20;;;1.67;;
17864;SDS011;9058;52.018;4.202;2023-07-13T13:29:50;5.75;;;1.63;;
17864;SDS011;9058;52.018;4.202;2023-07-13T13:32:18;3.08;;;1.58;;
17864;SDS011;9058;52.018;4.202;2023-07-13T13:34:45;5.07;;;1.80;;
17864;SDS011;9058;52.018;4.202;2023-07-13T13:37:15;3.08;;;1.63;;
17864;SDS011;9058;52.018;4.202;2023-07-13T13:39:43;4.15;;;1.45;;
17864;SDS011;9058;52.018;4.202;2023-07-13T13:42:10;3.92;;;1.73;;
17864;SDS011;9058;52.018;4.202;2023-07-13T13:44:37;5.10;;;2.00;;
17864;SDS011;9058;52.018;4.202;2023-07-13T13:47:07;4.28;;;1.65;;
17864;SDS011;9058;52.018;4.202;2023-07-13T13:49:39;3.85;;;1.90;;
17864;SDS011;9058;52.018;4.202;2023-07-13T13:52:08;2.45;;;1.30;;
17864;SDS011;9058;52.018;4.202;2023-07-13T13:54:35;5.72;;;1.50;;
17864;SDS011;9058;52.018;4.202;2023-07-13T13:57:02;4.22;;;1.48;;
17864;SDS011;9058;52.018;4.202;2023-07-13T13:59:29;1.95;;;1.50;;
17864;SDS011;9058;52.018;4.202;2023-07-13T14:01:59;5.10;;;1.85;;
17864;SDS011;9058;52.018;4.202;2023-07-13T14:04:26;3.30;;;1.63;;
17864;SDS011;9058;52.018;4.202;2023-07-13T14:06:52;5.00;;;1.83;;
17864;SDS011;9058;52.018;4.202;2023-07-13T14:09:19;4.85;;;1.50;;
17864;SDS011;9058;52.018;4.202;2023-07-13T14:11:47;6.15;;;1.65;;
17864;SDS011;9058;52.018;4.202;2023-07-13T14:14:14;6.78;;;1.90;;
17864;SDS011;9058;52.018;4.202;2023-07-13T14:16:43;4.20;;;1.65;;
17864;SDS011;9058;52.018;4.202;2023-07-13T14:19:13;3.22;;;1.60;;
17864;SDS011;9058;52.018;4.202;2023-07-13T14:21:40;5.07;;;1.83;;
17864;SDS011;9058;52.018;4.202;2023-07-13T14:24:07;7.70;;;1.83;;
17864;SDS011;9058;52.018;4.202;2023-07-13T14:26:35;6.50;;;1.67;;
17864;SDS011;9058;52.018;4.202;2023-07-13T14:29:04;2.78;;;1.52;;
17864;SDS011;9058;52.018;4.202;2023-07-13T14:31:31;5.03;;;1.95;;
17864;SDS011;9058;52.018;4.202;2023-07-13T14:33:57;4.88;;;1.70;;
17864;SDS011;9058;52.018;4.202;2023-07-13T14:36:27;2.13;;;1.42;;
17864;SDS011;9058;52.018;4.202;2023-07-13T14:38:54;3.28;;;1.63;;
17864;SDS011;9058;52.018;4.202;2023-07-13T14:41:20;3.25;;;1.77;;
17864;SDS011;9058;52.018;4.202;2023-07-13T14:43:47;2.80;;;1.25;;
17864;SDS011;9058;52.018;4.202;2023-07-13T14:46:18;4.88;;;1.80;;
17864;SDS011;9058;52.018;4.202;2023-07-13T14:48:48;3.65;;;1.40;;
17864;SDS011;9058;52.018;4.202;2023-07-13T14:51:14;3.80;;;1.70;;
17864;SDS011;9058;52.018;4.202;2023-07-13T14:53:42;4.05;;;1.88;;
17864;SDS011;9058;52.018;4.202;2023-07-13T14:56:10;4.35;;;1.77;;
17864;SDS011;9058;52.018;4.202;2023-07-13T14:58:36;4.55;;;1.50;;
17864;SDS011;9058;52.018;4.202;2023-07-13T15:01:07;6.63;;;1.50;;
17864;SDS011;9058;52.018;4.202;2023-07-13T15:03:37;3.97;;;1.45;;
17864;SDS011;9058;52.018;4.202;2023-07-13T15:06:07;2.08;;;1.45;;
17864;SDS011;9058;52.018;4.202;2023-07-13T15:08:35;4.75;;;1.70;;
17864;SDS011;9058;52.018;4.202;2023-07-13T15:11:04;2.92;;;1.77;;